Chemroad Wing — 3EAB8 — position and weather

sailwx.info

Track history (hours):
 
Tides and Currents Weather Stations Pressure Air Temp Water Temp Dewpoint Dewpoint Depression Visibility Wind Speed Wind Dir Waves Ship Positions

Chemroad Wing

Last reported at 2017-Sep-20 20:36 UTC. Time now 2017-Oct-17 15:25 UTC.
Position N 31°15' E 032°19'.
Warning: this ship's position is 26 days out of date.

Length 170 m; draft 11.7 m.

Type: Ship (hazmat cat C). MMSI: 357740000.

Date/timePositionNaut miles runAvg speedWind from/ knotsBaromVisibWave heightAir tempDewpointWater temp
2017-Sep-20 20:36N 31°15' E 032°19'0 0.0
2017-Sep-20 20:18N 31°15' E 032°19'0 0.0
2017-Sep-20 13:20N 31°15' E 032°19'49911.5
2017-Sep-18 18:05N 34°04' E 023°01'712.7
2017-Sep-18 17:31N 34°06' E 022°52'012.9
2017-Sep-18 17:30N 34°06' E 022°52'21612.9
2017-Sep-18 00:44N 35°05' E 018°40'412.1
2017-Sep-18 00:26N 35°06' E 018°35'512.0
2017-Sep-18 00:00N 35°07' E 018°29'611.8
2017-Sep-17 23:29N 35°09' E 018°22'1112.0
2017-Sep-17 22:36N 35°12' E 018°10'112.1
2017-Sep-17 22:30N 35°12' E 018°08'612.0
2017-Sep-17 22:00N 35°14' E 018°01'612.1
2017-Sep-17 21:30N 35°15' E 017°54'612.2
2017-Sep-17 21:00N 35°17' E 017°47'612.5
2017-Sep-17 20:30N 35°19' E 017°39'612.8
2017-Sep-17 19:59N 35°20' E 017°32'612.8
2017-Sep-17 19:30N 35°22' E 017°24'1612.8
2017-Sep-17 18:15N 35°26' E 017°05'1412.7
2017-Sep-17 17:08N 35°30' E 016°49'212.7
2017-Sep-17 17:00N 35°31' E 016°46'712.6
2017-Sep-17 16:25N 35°33' E 016°38'712.7
2017-Sep-17 15:50N 35°35' E 016°29'412.9
2017-Sep-17 15:30N 35°36' E 016°24'613.0
2017-Sep-17 15:00N 35°38' E 016°16'713.0
2017-Sep-17 14:29N 35°40' E 016°09'613.0
2017-Sep-17 14:00N 35°42' E 016°01'612.9
2017-Sep-17 13:30N 35°44' E 015°54'612.8
2017-Sep-17 13:00N 35°46' E 015°46'612.7
2017-Sep-17 12:30N 35°49' E 015°39'612.5
2017-Sep-17 12:00N 35°51' E 015°32'612.4
2017-Sep-17 11:30N 35°54' E 015°25'612.5
2017-Sep-17 11:00N 35°56' E 015°18'612.8
2017-Sep-17 10:30N 35°59' E 015°11'712.9
2017-Sep-17 10:00N 36°02' E 015°04'2013.0
2017-Sep-17 08:28N 36°09' E 014°41'613.2
2017-Sep-17 08:00N 36°11' E 014°33'713.4
2017-Sep-17 07:30N 36°13' E 014°26'713.4
2017-Sep-17 07:00N 36°15' E 014°18'612.9
2017-Sep-17 06:30N 36°17' E 014°10'612.7
2017-Sep-17 06:00N 36°19' E 014°02'612.8
2017-Sep-17 05:30N 36°21' E 013°55'713.1
2017-Sep-17 05:00N 36°24' E 013°48'612.9
2017-Sep-17 04:30N 36°26' E 013°40'612.6
2017-Sep-17 04:00N 36°29' E 013°33'612.6
2017-Sep-17 03:30N 36°31' E 013°26'612.4
2017-Sep-17 03:00N 36°34' E 013°19'712.3
2017-Sep-17 02:25N 36°36' E 013°11'512.3
2017-Sep-17 02:00N 36°38' E 013°05'612.2
2017-Sep-17 01:30N 36°41' E 012°58'612.2
2017-Sep-17 01:00N 36°43' E 012°51'612.4
2017-Sep-17 00:30N 36°46' E 012°43'612.5
2017-Sep-17 00:00N 36°48' E 012°36'612.6
2017-Sep-16 23:30N 36°51' E 012°29'612.8
2017-Sep-16 23:00N 36°53' E 012°22'713.1
2017-Sep-16 22:30N 36°56' E 012°14'713.2
2017-Sep-16 22:00N 36°58' E 012°07'713.0
2017-Sep-16 21:30N 37°02' E 011°59'612.6
2017-Sep-16 21:00N 37°05' E 011°53'612.7
2017-Sep-16 20:30N 37°07' E 011°46'612.8
2017-Sep-16 20:00N 37°10' E 011°39'712.8
2017-Sep-16 19:30N 37°14' E 011°31'613.0
2017-Sep-16 19:00N 37°17' E 011°24'713.0
2017-Sep-16 18:29N 37°20' E 011°17'612.9
2017-Sep-16 17:59N 37°23' E 011°10'712.8
2017-Sep-16 17:27N 37°26' E 011°02'612.7
2017-Sep-16 17:00N 37°28' E 010°55'612.8
2017-Sep-16 16:30N 37°30' E 010°48'713.0
2017-Sep-16 16:00N 37°31' E 010°39'2313.6
2017-Sep-16 14:21N 37°33' E 010°11'513.5
2017-Sep-16 13:59N 37°33' E 010°05'713.5
2017-Sep-16 13:30N 37°33' E 009°57'8612.7
2017-Sep-16 06:45N 37°33' E 008°08'511.9
2017-Sep-16 06:20N 37°33' E 008°02'612.1
2017-Sep-16 05:51N 37°32' E 007°55'512.3
2017-Sep-16 05:25N 37°32' E 007°48'27513.0
2017-Sep-15 08:19N 36°57' E 002°05'412.9
2017-Sep-15 08:00N 36°56' E 002°00'812.8
2017-Sep-15 07:24N 36°55' E 001°51'512.7
2017-Sep-15 06:59N 36°54' E 001°44'612.6
2017-Sep-15 06:30N 36°53' E 001°37'612.5
2017-Sep-15 06:00N 36°52' E 001°29'612.5
2017-Sep-15 05:30N 36°51' E 001°21'612.3
2017-Sep-15 05:00N 36°50' E 001°14'1612.2
2017-Sep-15 03:44N 36°48' E 000°55'312.7
2017-Sep-15 03:28N 36°47' E 000°50'613.0
2017-Sep-15 03:00N 36°46' E 000°43'713.1
2017-Sep-15 02:30N 36°45' E 000°35'713.0
2017-Sep-15 01:59N 36°44' E 000°27'613.0
2017-Sep-15 01:30N 36°43' E 000°19'613.0
2017-Sep-15 01:00N 36°41' E 000°11'713.0
2017-Sep-15 00:28N 36°40' E 000°03'613.0
2017-Sep-14 23:59N 36°39' W 000°05'713.0
2017-Sep-14 23:28N 36°38' W 000°13'1112.9
2017-Sep-14 22:35N 36°36' W 000°27'112.8
2017-Sep-14 22:30N 36°36' W 000°29'712.9
2017-Sep-14 21:59N 36°35' W 000°37'613.1
2017-Sep-14 21:30N 36°34' W 000°44'1013.1
2017-Sep-14 20:42N 36°32' W 000°57'313.0
2017-Sep-14 20:30N 36°31' W 001°00'611.7
2017-Sep-14 20:00N 36°32' W 001°08'713.3
2017-Sep-14 19:30N 36°29' W 001°15'814.2
2017-Sep-14 18:58N 36°28' W 001°24'714.2
2017-Sep-14 18:30N 36°27' W 001°32'714.2
2017-Sep-14 18:00N 36°26' W 001°41'814.0
2017-Sep-14 17:24N 36°24' W 001°51'613.8
2017-Sep-14 17:00N 36°23' W 001°58'713.7
2017-Sep-14 16:30N 36°22' W 002°07'15413.6
2017-Sep-14 05:11N 36°03' W 005°15'213.6
2017-Sep-14 05:00N 36°02' W 005°18'510.7
2017-Sep-14 04:30N 36°05' W 005°24'1 2.7
2017-Sep-14 03:58N 36°06' W 005°25'0 0.0
2017-Sep-14 03:22N 36°06' W 005°25'0 0.0
2017-Sep-14 02:52N 36°06' W 005°25'0 0.1
2017-Sep-14 02:25N 36°06' W 005°25'0 0.0
2017-Sep-14 01:58N 36°06' W 005°25'0 0.1
2017-Sep-14 01:25N 36°06' W 005°25'0 0.1
2017-Sep-14 00:58N 36°06' W 005°25'0 0.0
2017-Sep-13 18:41N 36°06' W 005°25'0 0.5
2017-Sep-13 18:29N 36°06' W 005°25'2 4.3
2017-Sep-13 18:00N 36°05' W 005°23'5 8.5
2017-Sep-13 17:26N 35°60' W 005°24'512.1
2017-Sep-13 17:00N 35°57' W 005°29'911.5
2017-Sep-13 16:11N 35°55' W 005°41'510.3
2017-Sep-13 15:42N 35°54' W 005°47'210.7
2017-Sep-13 15:29N 35°53' W 005°49'2211.3
2017-Sep-13 13:32N 35°41' W 006°11'011.4
2017-Sep-13 13:30N 35°40' W 006°12'712.1
2017-Sep-13 12:56N 35°36' W 006°18'612.4
2017-Sep-13 12:26N 35°32' W 006°24'512.4
2017-Sep-13 12:00N 35°28' W 006°28'612.7
2017-Sep-13 11:30N 35°24' W 006°34'713.0
2017-Sep-13 11:00N 35°19' W 006°40'612.8
2017-Sep-13 10:30N 35°14' W 006°45'2312.9
2017-Sep-13 08:41N 34°56' W 007°03'212.7
2017-Sep-13 08:30N 34°55' W 007°05'712.7
2017-Sep-13 07:59N 34°50' W 007°11'712.8
2017-Sep-13 07:24N 34°45' W 007°18'512.7
2017-Sep-13 07:00N 34°42' W 007°23'713.0
2017-Sep-13 06:30N 34°38' W 007°29'712.8
2017-Sep-13 05:57N 34°34' W 007°36'512.3
2017-Sep-13 05:30N 34°31' W 007°41'2112.1
2017-Sep-13 03:46N 34°15' W 007°58'312.0
2017-Sep-13 03:29N 34°12' W 008°01'611.9
2017-Sep-13 03:00N 34°08' W 008°05'1111.6
2017-Sep-13 02:03N 33°59' W 008°14'411.6
2017-Sep-13 01:42N 33°56' W 008°17'211.6
2017-Sep-13 01:30N 33°55' W 008°19'611.6
2017-Sep-13 01:00N 33°50' W 008°24'611.3
2017-Sep-13 00:30N 33°46' W 008°28'1011.2
2017-Sep-12 23:35N 33°38' W 008°36'111.1
2017-Sep-12 23:30N 33°38' W 008°37'611.2
2017-Sep-12 23:00N 33°33' W 008°42'510.7
2017-Sep-12 22:30N 33°29' W 008°45'  
Track history (hours):
 
Tides and Currents Weather Stations Pressure Air Temp Water Temp Dewpoint Dewpoint Depression Visibility Wind Speed Wind Dir Waves Ship Positions

Chemroad Wing

Last reported at 2017-Sep-20 20:36 UTC. Time now 2017-Oct-17 15:25 UTC.
Position N 31°15' E 032°19'.
Warning: this ship's position is 26 days out of date.

Length 170 m; draft 11.7 m.

Type: Ship (hazmat cat C). MMSI: 357740000.

Date/timePositionNaut miles runAvg speedWind from/ knotsBaromVisibWave heightAir tempDewpointWater temp
2017-Sep-20 20:36N 31°15' E 032°19'0 0.0
2017-Sep-20 20:18N 31°15' E 032°19'0 0.0
2017-Sep-20 13:20N 31°15' E 032°19'49911.5
2017-Sep-18 18:05N 34°04' E 023°01'712.7
2017-Sep-18 17:31N 34°06' E 022°52'012.9
2017-Sep-18 17:30N 34°06' E 022°52'21612.9
2017-Sep-18 00:44N 35°05' E 018°40'412.1
2017-Sep-18 00:26N 35°06' E 018°35'512.0
2017-Sep-18 00:00N 35°07' E 018°29'611.8
2017-Sep-17 23:29N 35°09' E 018°22'1112.0
2017-Sep-17 22:36N 35°12' E 018°10'112.1
2017-Sep-17 22:30N 35°12' E 018°08'612.0
2017-Sep-17 22:00N 35°14' E 018°01'612.1
2017-Sep-17 21:30N 35°15' E 017°54'612.2
2017-Sep-17 21:00N 35°17' E 017°47'612.5
2017-Sep-17 20:30N 35°19' E 017°39'612.8
2017-Sep-17 19:59N 35°20' E 017°32'612.8
2017-Sep-17 19:30N 35°22' E 017°24'1612.8
2017-Sep-17 18:15N 35°26' E 017°05'1412.7
2017-Sep-17 17:08N 35°30' E 016°49'212.7
2017-Sep-17 17:00N 35°31' E 016°46'712.6
2017-Sep-17 16:25N 35°33' E 016°38'712.7
2017-Sep-17 15:50N 35°35' E 016°29'412.9
2017-Sep-17 15:30N 35°36' E 016°24'613.0
2017-Sep-17 15:00N 35°38' E 016°16'713.0
2017-Sep-17 14:29N 35°40' E 016°09'613.0
2017-Sep-17 14:00N 35°42' E 016°01'612.9
2017-Sep-17 13:30N 35°44' E 015°54'612.8
2017-Sep-17 13:00N 35°46' E 015°46'612.7
2017-Sep-17 12:30N 35°49' E 015°39'612.5
2017-Sep-17 12:00N 35°51' E 015°32'612.4
2017-Sep-17 11:30N 35°54' E 015°25'612.5
2017-Sep-17 11:00N 35°56' E 015°18'612.8
2017-Sep-17 10:30N 35°59' E 015°11'712.9
2017-Sep-17 10:00N 36°02' E 015°04'2013.0
2017-Sep-17 08:28N 36°09' E 014°41'613.2
2017-Sep-17 08:00N 36°11' E 014°33'713.4
2017-Sep-17 07:30N 36°13' E 014°26'713.4
2017-Sep-17 07:00N 36°15' E 014°18'612.9
2017-Sep-17 06:30N 36°17' E 014°10'612.7
2017-Sep-17 06:00N 36°19' E 014°02'612.8
2017-Sep-17 05:30N 36°21' E 013°55'713.1
2017-Sep-17 05:00N 36°24' E 013°48'612.9
2017-Sep-17 04:30N 36°26' E 013°40'612.6
2017-Sep-17 04:00N 36°29' E 013°33'612.6
2017-Sep-17 03:30N 36°31' E 013°26'612.4
2017-Sep-17 03:00N 36°34' E 013°19'712.3
2017-Sep-17 02:25N 36°36' E 013°11'512.3
2017-Sep-17 02:00N 36°38' E 013°05'612.2
2017-Sep-17 01:30N 36°41' E 012°58'612.2
2017-Sep-17 01:00N 36°43' E 012°51'612.4
2017-Sep-17 00:30N 36°46' E 012°43'612.5
2017-Sep-17 00:00N 36°48' E 012°36'612.6
2017-Sep-16 23:30N 36°51' E 012°29'612.8
2017-Sep-16 23:00N 36°53' E 012°22'713.1
2017-Sep-16 22:30N 36°56' E 012°14'713.2
2017-Sep-16 22:00N 36°58' E 012°07'713.0
2017-Sep-16 21:30N 37°02' E 011°59'612.6
2017-Sep-16 21:00N 37°05' E 011°53'612.7
2017-Sep-16 20:30N 37°07' E 011°46'612.8
2017-Sep-16 20:00N 37°10' E 011°39'712.8
2017-Sep-16 19:30N 37°14' E 011°31'613.0
2017-Sep-16 19:00N 37°17' E 011°24'713.0
2017-Sep-16 18:29N 37°20' E 011°17'612.9
2017-Sep-16 17:59N 37°23' E 011°10'712.8
2017-Sep-16 17:27N 37°26' E 011°02'612.7
2017-Sep-16 17:00N 37°28' E 010°55'612.8
2017-Sep-16 16:30N 37°30' E 010°48'713.0
2017-Sep-16 16:00N 37°31' E 010°39'2313.6
2017-Sep-16 14:21N 37°33' E 010°11'513.5
2017-Sep-16 13:59N 37°33' E 010°05'713.5
2017-Sep-16 13:30N 37°33' E 009°57'8612.7
2017-Sep-16 06:45N 37°33' E 008°08'511.9
2017-Sep-16 06:20N 37°33' E 008°02'612.1
2017-Sep-16 05:51N 37°32' E 007°55'512.3
2017-Sep-16 05:25N 37°32' E 007°48'27513.0
2017-Sep-15 08:19N 36°57' E 002°05'412.9
2017-Sep-15 08:00N 36°56' E 002°00'812.8
2017-Sep-15 07:24N 36°55' E 001°51'512.7
2017-Sep-15 06:59N 36°54' E 001°44'612.6
2017-Sep-15 06:30N 36°53' E 001°37'612.5
2017-Sep-15 06:00N 36°52' E 001°29'612.5
2017-Sep-15 05:30N 36°51' E 001°21'612.3
2017-Sep-15 05:00N 36°50' E 001°14'1612.2
2017-Sep-15 03:44N 36°48' E 000°55'312.7
2017-Sep-15 03:28N 36°47' E 000°50'613.0
2017-Sep-15 03:00N 36°46' E 000°43'713.1
2017-Sep-15 02:30N 36°45' E 000°35'713.0
2017-Sep-15 01:59N 36°44' E 000°27'613.0
2017-Sep-15 01:30N 36°43' E 000°19'613.0
2017-Sep-15 01:00N 36°41' E 000°11'713.0
2017-Sep-15 00:28N 36°40' E 000°03'613.0
2017-Sep-14 23:59N 36°39' W 000°05'713.0
2017-Sep-14 23:28N 36°38' W 000°13'1112.9
2017-Sep-14 22:35N 36°36' W 000°27'112.8
2017-Sep-14 22:30N 36°36' W 000°29'712.9
2017-Sep-14 21:59N 36°35' W 000°37'613.1
2017-Sep-14 21:30N 36°34' W 000°44'1013.1
2017-Sep-14 20:42N 36°32' W 000°57'313.0
2017-Sep-14 20:30N 36°31' W 001°00'611.7
2017-Sep-14 20:00N 36°32' W 001°08'713.3
2017-Sep-14 19:30N 36°29' W 001°15'814.2
2017-Sep-14 18:58N 36°28' W 001°24'714.2
2017-Sep-14 18:30N 36°27' W 001°32'714.2
2017-Sep-14 18:00N 36°26' W 001°41'814.0
2017-Sep-14 17:24N 36°24' W 001°51'613.8
2017-Sep-14 17:00N 36°23' W 001°58'713.7
2017-Sep-14 16:30N 36°22' W 002°07'15413.6
2017-Sep-14 05:11N 36°03' W 005°15'213.6
2017-Sep-14 05:00N 36°02' W 005°18'510.7
2017-Sep-14 04:30N 36°05' W 005°24'1 2.7
2017-Sep-14 03:58N 36°06' W 005°25'0 0.0
2017-Sep-14 03:22N 36°06' W 005°25'0 0.0
2017-Sep-14 02:52N 36°06' W 005°25'0 0.1
2017-Sep-14 02:25N 36°06' W 005°25'0 0.0
2017-Sep-14 01:58N 36°06' W 005°25'0 0.1
2017-Sep-14 01:25N 36°06' W 005°25'0 0.1
2017-Sep-14 00:58N 36°06' W 005°25'0 0.0
2017-Sep-13 18:41N 36°06' W 005°25'0 0.5
2017-Sep-13 18:29N 36°06' W 005°25'2 4.3
2017-Sep-13 18:00N 36°05' W 005°23'5 8.5
2017-Sep-13 17:26N 35°60' W 005°24'512.1
2017-Sep-13 17:00N 35°57' W 005°29'911.5
2017-Sep-13 16:11N 35°55' W 005°41'510.3
2017-Sep-13 15:42N 35°54' W 005°47'210.7
2017-Sep-13 15:29N 35°53' W 005°49'2211.3
2017-Sep-13 13:32N 35°41' W 006°11'011.4
2017-Sep-13 13:30N 35°40' W 006°12'712.1
2017-Sep-13 12:56N 35°36' W 006°18'612.4
2017-Sep-13 12:26N 35°32' W 006°24'512.4
2017-Sep-13 12:00N 35°28' W 006°28'612.7
2017-Sep-13 11:30N 35°24' W 006°34'713.0
2017-Sep-13 11:00N 35°19' W 006°40'612.8
2017-Sep-13 10:30N 35°14' W 006°45'2312.9
2017-Sep-13 08:41N 34°56' W 007°03'212.7
2017-Sep-13 08:30N 34°55' W 007°05'712.7
2017-Sep-13 07:59N 34°50' W 007°11'712.8
2017-Sep-13 07:24N 34°45' W 007°18'512.7
2017-Sep-13 07:00N 34°42' W 007°23'713.0
2017-Sep-13 06:30N 34°38' W 007°29'712.8
2017-Sep-13 05:57N 34°34' W 007°36'512.3
2017-Sep-13 05:30N 34°31' W 007°41'2112.1
2017-Sep-13 03:46N 34°15' W 007°58'312.0
2017-Sep-13 03:29N 34°12' W 008°01'611.9
2017-Sep-13 03:00N 34°08' W 008°05'1111.6
2017-Sep-13 02:03N 33°59' W 008°14'411.6
2017-Sep-13 01:42N 33°56' W 008°17'211.6
2017-Sep-13 01:30N 33°55' W 008°19'611.6
2017-Sep-13 01:00N 33°50' W 008°24'611.3
2017-Sep-13 00:30N 33°46' W 008°28'1011.2
2017-Sep-12 23:35N 33°38' W 008°36'111.1
2017-Sep-12 23:30N 33°38' W 008°37'611.2
2017-Sep-12 23:00N 33°33' W 008°42'510.7
2017-Sep-12 22:30N 33°29' W 008°45'  

Dump ship's entire track history